Corinth, North Carolina
Current Conditions -  °F | °C
As of 3:15 PM on Thursday 29 Jan 2015 (Local Time) from KFQD Reporting Station
Overcast Overcast  
Wind Chill: 44°   Ceiling: 10000
Heat Index: 49°   Visibility: 10mi
Dew Point: 26°   Wind: 10mph
Humidity: 40%   Direction: 190°S
Pressure: 30.1"   Gusts: 21mph
Location:  35.4977°N, 81.7958°W
Report Text: KFQD 292015Z AUTO 19009G18KT 10SM OVC100 09/M04 A3010 RMK AO2 T00931036
Loading
Personal Weather Stations






























Interactive Weather Map New forecast layout! Learn more

10-Day Weather Forecast

Advertisements
Track Severe Weather on mobile